createdAt,value
2017-08-28T00:00:04.559Z,100690.83
2017-08-28T00:02:32.010Z,100687.37
2017-08-28T00:04:59.472Z,100686.62
2017-08-28T00:07:27.015Z,100689.72
2017-08-28T00:09:54.462Z,100694.59
2017-08-28T00:12:21.930Z,100690.00
2017-08-28T00:14:49.378Z,100685.84
2017-08-28T00:17:16.845Z,100683.00
2017-08-28T00:19:44.285Z,100686.84
2017-08-28T00:22:11.755Z,100689.05
2017-08-28T00:24:39.202Z,100683.95
2017-08-28T00:27:06.685Z,100680.64
2017-08-28T00:29:34.139Z,100692.00
2017-08-28T00:32:01.646Z,100699.34
2017-08-28T00:34:29.102Z,100706.38
2017-08-28T00:36:56.588Z,100698.56
2017-08-28T00:39:24.047Z,100700.98
2017-08-28T00:41:51.497Z,100697.28
2017-08-28T00:44:18.986Z,100696.13
2017-08-28T00:46:46.433Z,100704.34
2017-08-28T00:49:13.908Z,100702.38
2017-08-28T00:51:41.363Z,100707.72
2017-08-28T00:54:08.835Z,100697.31
2017-08-28T00:56:36.297Z,100689.30
2017-08-28T00:59:03.775Z,100689.17
2017-08-28T01:01:31.222Z,100690.69
2017-08-28T01:03:58.706Z,100692.42
2017-08-28T01:06:26.167Z,100688.12
2017-08-28T01:08:53.691Z,100696.80
2017-08-28T01:11:21.170Z,100688.45
2017-08-28T01:13:48.632Z,100697.05
2017-08-28T01:16:16.138Z,100690.02
2017-08-28T01:18:43.596Z,100689.91
2017-08-28T01:21:11.070Z,100686.89
2017-08-28T01:23:38.523Z,100689.19
2017-08-28T01:26:06.063Z,100694.34
2017-08-28T01:28:33.520Z,100692.62
2017-08-28T01:31:00.985Z,100693.67
2017-08-28T01:33:28.534Z,100698.34
2017-08-28T01:35:56.010Z,100697.65
2017-08-28T01:38:23.462Z,100696.84
2017-08-28T01:40:50.927Z,100698.41
2017-08-28T01:43:18.423Z,100692.77
2017-08-28T01:45:45.884Z,100693.02
2017-08-28T01:48:13.353Z,100696.83
2017-08-28T01:50:40.815Z,100685.31
2017-08-28T01:53:08.289Z,100690.45
2017-08-28T01:55:35.775Z,100690.92
2017-08-28T01:58:03.249Z,100693.11
2017-08-28T02:00:30.709Z,100690.43
2017-08-28T02:02:58.205Z,100687.05
2017-08-28T02:05:25.654Z,100681.80
2017-08-28T02:07:53.131Z,100687.22
2017-08-28T02:10:20.587Z,100687.50
2017-08-28T02:12:48.058Z,100687.67
2017-08-28T02:15:15.510Z,100683.80
2017-08-28T02:17:42.987Z,100680.56
2017-08-28T02:20:10.446Z,100685.32
2017-08-28T02:22:37.915Z,100686.53
2017-08-28T02:25:05.366Z,100685.19
2017-08-28T02:27:32.842Z,100679.91
2017-08-28T02:30:00.300Z,100673.41
2017-08-28T02:32:27.778Z,100675.39
2017-08-28T02:34:55.230Z,100680.05
2017-08-28T02:37:22.709Z,100675.71
2017-08-28T02:39:50.165Z,100676.75
2017-08-28T02:42:17.644Z,100680.30
2017-08-28T02:44:45.094Z,100685.30
2017-08-28T02:47:12.554Z,100682.14
2017-08-28T02:49:40.048Z,100685.03
2017-08-28T02:52:07.507Z,100684.80
2017-08-28T02:54:34.992Z,100685.27
2017-08-28T02:57:02.452Z,100689.11
2017-08-28T02:59:29.934Z,100689.32
2017-08-28T03:01:57.390Z,100690.22
2017-08-28T03:04:24.867Z,100687.18
2017-08-28T03:06:52.323Z,100679.39
2017-08-28T03:09:19.797Z,100668.69
2017-08-28T03:11:47.256Z,100673.85
2017-08-28T03:14:14.738Z,100672.12
2017-08-28T03:16:42.194Z,100661.97
2017-08-28T03:19:09.774Z,100671.81
2017-08-28T03:21:37.232Z,100666.12
2017-08-28T03:24:04.708Z,100674.39
2017-08-28T03:26:32.162Z,100670.64
2017-08-28T03:28:59.629Z,100670.22
2017-08-28T03:31:27.081Z,100673.15
2017-08-28T03:33:54.554Z,100677.23
2017-08-28T03:36:22.002Z,100670.94
2017-08-28T03:38:49.469Z,100670.67
2017-08-28T03:41:16.924Z,100670.58
2017-08-28T03:43:44.398Z,100673.00
2017-08-28T03:46:11.850Z,100675.09
2017-08-28T03:48:39.323Z,100680.55
2017-08-28T03:51:06.791Z,100683.79
2017-08-28T03:53:34.299Z,100685.84
2017-08-28T03:56:01.745Z,100683.59
2017-08-28T03:58:29.207Z,100680.23
2017-08-28T04:00:56.707Z,100685.56
2017-08-28T04:03:24.163Z,100673.09
2017-08-28T04:05:51.639Z,100683.59
2017-08-28T04:08:19.094Z,100683.99
2017-08-28T04:10:46.570Z,100685.80
2017-08-28T04:13:14.054Z,100676.52
2017-08-28T04:15:41.532Z,100686.22
2017-08-28T04:18:09.000Z,100684.25
2017-08-28T04:20:36.476Z,100685.77
2017-08-28T04:23:03.932Z,100683.98
2017-08-28T04:25:31.405Z,100685.98
2017-08-28T04:27:58.866Z,100693.69
2017-08-28T04:30:26.337Z,100695.09
2017-08-28T04:32:53.782Z,100696.95
2017-08-28T04:35:21.262Z,100697.83
2017-08-28T04:37:48.726Z,100702.17
2017-08-28T04:40:16.206Z,100695.50
2017-08-28T04:42:43.698Z,100701.51
2017-08-28T04:45:11.165Z,100704.08
2017-08-28T04:47:38.615Z,100707.08
2017-08-28T04:50:06.117Z,100706.12
2017-08-28T04:52:33.575Z,100705.65
2017-08-28T04:55:01.053Z,100706.47
2017-08-28T04:57:28.499Z,100711.03
2017-08-28T04:59:55.969Z,100705.28
2017-08-28T05:02:23.437Z,100709.42
2017-08-28T05:04:50.935Z,100705.34
2017-08-28T05:07:18.422Z,100706.20
2017-08-28T05:09:45.876Z,100709.50
2017-08-28T05:12:13.341Z,100714.91
2017-08-28T05:14:40.796Z,100715.73
2017-08-28T05:17:08.271Z,100722.48
2017-08-28T05:19:35.718Z,100717.77
2017-08-28T05:22:03.197Z,100722.68
2017-08-28T05:24:30.695Z,100725.02
2017-08-28T05:26:58.193Z,100721.19
2017-08-28T05:29:25.691Z,100730.77
2017-08-28T05:31:53.171Z,100719.36
2017-08-28T05:34:20.617Z,100727.50
2017-08-28T05:36:48.094Z,100723.40
2017-08-28T05:39:15.555Z,100727.75
2017-08-28T05:41:43.072Z,100730.64
2017-08-28T05:44:10.586Z,100729.09
2017-08-28T05:46:38.087Z,100723.56
2017-08-28T05:49:05.542Z,100726.81
2017-08-28T05:51:33.014Z,100724.32
2017-08-28T05:54:00.476Z,100728.27
2017-08-28T05:56:27.948Z,100732.34
2017-08-28T05:58:55.425Z,100735.58
2017-08-28T06:01:22.898Z,100730.17
2017-08-28T06:03:50.351Z,100746.17
2017-08-28T06:06:17.826Z,100744.08
2017-08-28T06:08:45.274Z,100736.05
2017-08-28T06:11:12.742Z,100733.00
2017-08-28T06:13:40.203Z,100734.30
2017-08-28T06:16:07.669Z,100735.67
2017-08-28T06:18:35.209Z,100731.91
2017-08-28T06:21:02.689Z,100731.96
2017-08-28T06:23:30.143Z,100743.91
2017-08-28T06:25:57.593Z,100743.34
2017-08-28T06:28:25.084Z,100737.13
2017-08-28T06:30:52.543Z,100740.75
2017-08-28T06:33:20.017Z,100742.44
2017-08-28T06:35:47.480Z,100731.67
2017-08-28T06:38:14.954Z,100731.45
2017-08-28T06:40:42.398Z,100734.95
2017-08-28T06:43:09.866Z,100735.08
2017-08-28T06:45:37.331Z,100733.45
2017-08-28T06:48:04.803Z,100735.13
2017-08-28T06:50:32.258Z,100735.91
2017-08-28T06:52:59.730Z,100738.43
2017-08-28T06:55:27.178Z,100745.55
2017-08-28T06:57:54.650Z,100743.38
2017-08-28T07:00:22.102Z,100753.38
2017-08-28T07:02:49.585Z,100746.87
2017-08-28T07:05:17.060Z,100746.23
2017-08-28T07:07:44.539Z,100751.34
2017-08-28T07:10:11.990Z,100745.66
2017-08-28T07:12:39.466Z,100750.83
2017-08-28T07:15:06.930Z,100749.33
2017-08-28T07:17:34.430Z,100755.35
2017-08-28T07:20:01.890Z,100751.09
2017-08-28T07:22:29.361Z,100752.22
2017-08-28T07:24:56.826Z,100751.95
2017-08-28T07:27:24.285Z,100757.20
2017-08-28T07:29:51.772Z,100755.91
2017-08-28T07:32:19.239Z,100753.31
2017-08-28T07:34:46.721Z,100756.13
2017-08-28T07:37:14.182Z,100759.38
2017-08-28T07:39:41.659Z,100760.61
2017-08-28T07:42:09.128Z,100763.31
2017-08-28T07:44:36.603Z,100754.78
2017-08-28T07:47:04.055Z,100759.13
2017-08-28T07:49:31.517Z,100759.27
2017-08-28T07:51:58.967Z,100752.65
2017-08-28T07:54:26.438Z,100753.67
2017-08-28T07:56:53.952Z,100759.73
2017-08-28T07:59:21.422Z,100758.46
2017-08-28T08:01:48.891Z,100756.67
2017-08-28T08:04:16.372Z,100754.05
2017-08-28T08:06:43.833Z,100759.98
2017-08-28T08:09:11.310Z,100761.27
2017-08-28T08:11:38.774Z,100757.20
2017-08-28T08:14:06.262Z,100758.38
2017-08-28T08:16:33.723Z,100756.08
2017-08-28T08:19:01.178Z,100759.18
2017-08-28T08:21:28.646Z,100755.09
2017-08-28T08:23:56.102Z,100754.68
2017-08-28T08:26:23.579Z,100758.19
2017-08-28T08:28:51.026Z,100751.30
2017-08-28T08:31:18.498Z,100751.75
2017-08-28T08:33:51.347Z,100753.64
2017-08-28T08:36:18.819Z,100750.66
2017-08-28T08:38:46.275Z,100753.98
2017-08-28T08:41:13.757Z,100751.15
2017-08-28T08:43:41.206Z,100749.70
2017-08-28T08:46:08.674Z,100751.47
2017-08-28T08:48:36.122Z,100751.08
2017-08-28T08:51:03.604Z,100751.73
2017-08-28T08:53:31.055Z,100746.69
2017-08-28T08:55:58.572Z,100748.28
2017-08-28T08:58:26.039Z,100744.53
2017-08-28T09:00:53.496Z,100743.49
2017-08-28T09:03:26.467Z,100743.23
2017-08-28T09:05:53.906Z,100737.23
2017-08-28T09:08:21.366Z,100740.00
2017-08-28T09:10:48.813Z,100739.29
2017-08-28T09:13:16.296Z,100736.89
2017-08-28T09:15:43.748Z,100740.20
2017-08-28T09:18:11.186Z,100734.96
2017-08-28T09:20:38.659Z,100739.81
2017-08-28T09:23:06.101Z,100734.50
2017-08-28T09:25:33.563Z,100734.98
2017-08-28T09:28:01.006Z,100726.44
2017-08-28T09:30:28.479Z,100731.13
2017-08-28T09:32:55.918Z,100731.87
2017-08-28T09:35:23.378Z,100732.30
2017-08-28T09:37:50.840Z,100734.56
2017-08-28T09:40:18.302Z,100737.58
2017-08-28T09:42:45.773Z,100737.55
2017-08-28T09:45:13.234Z,100736.83
2017-08-28T09:47:40.682Z,100742.90
2017-08-28T09:50:08.155Z,100737.34
2017-08-28T09:52:35.594Z,100740.44
2017-08-28T09:55:03.041Z,100741.09
2017-08-28T09:57:30.512Z,100740.24
2017-08-28T09:59:57.957Z,100737.22
2017-08-28T10:02:25.457Z,100739.52
2017-08-28T10:04:52.898Z,100731.73
2017-08-28T10:07:20.369Z,100734.21
2017-08-28T10:09:47.815Z,100736.70
2017-08-28T10:12:15.342Z,100730.98
2017-08-28T10:14:42.778Z,100728.42
2017-08-28T10:17:10.242Z,100728.55
2017-08-28T10:19:37.690Z,100728.59
2017-08-28T10:22:05.156Z,100731.39
2017-08-28T10:24:32.608Z,100729.81
2017-08-28T10:27:05.788Z,100727.23
2017-08-28T10:29:33.239Z,100723.48
2017-08-28T10:32:00.705Z,100725.55
2017-08-28T10:34:28.145Z,100715.69
2017-08-28T10:36:55.618Z,100712.56
2017-08-28T10:39:23.077Z,100715.67
2017-08-28T10:41:50.557Z,100708.31
2017-08-28T10:44:18.002Z,100703.45
2017-08-28T10:46:45.472Z,100701.56
2017-08-28T10:49:12.918Z,100702.67
2017-08-28T10:51:40.379Z,100706.17
2017-08-28T10:54:07.847Z,100707.63
2017-08-28T10:56:35.310Z,100705.09
2017-08-28T10:59:02.766Z,100697.71
2017-08-28T11:01:30.248Z,100698.23
2017-08-28T11:03:57.702Z,100699.54
2017-08-28T11:06:25.145Z,100702.66
2017-08-28T11:08:52.619Z,100695.27
2017-08-28T11:11:20.066Z,100691.67
2017-08-28T11:13:47.535Z,100692.05
2017-08-28T11:16:14.987Z,100684.92
2017-08-28T11:18:42.471Z,100688.11
2017-08-28T11:21:09.917Z,100685.30
2017-08-28T11:23:37.414Z,100684.67
2017-08-28T11:26:04.876Z,100683.91
2017-08-28T11:28:32.347Z,100690.08
2017-08-28T11:30:59.801Z,100682.97
2017-08-28T11:33:27.278Z,100675.81
2017-08-28T11:35:54.747Z,100675.20
2017-08-28T11:38:22.210Z,100673.77
2017-08-28T11:40:49.671Z,100668.27
2017-08-28T11:43:17.160Z,100666.92
2017-08-28T11:45:44.626Z,100668.16
2017-08-28T11:48:12.156Z,100668.14
2017-08-28T11:50:39.630Z,100661.13
2017-08-28T11:53:07.091Z,100664.48
2017-08-28T11:55:34.564Z,100659.08
2017-08-28T11:58:02.121Z,100656.95
2017-08-28T12:00:29.585Z,100652.38
2017-08-28T12:02:57.033Z,100646.33
2017-08-28T12:05:24.501Z,100649.35
2017-08-28T12:07:51.963Z,100641.13
2017-08-28T12:10:19.571Z,100644.75
2017-08-28T12:12:47.178Z,100642.34
2017-08-28T12:15:14.780Z,100643.53
2017-08-28T12:17:42.235Z,100641.94
2017-08-28T12:20:09.685Z,100645.91
2017-08-28T12:22:37.158Z,100643.92
2017-08-28T12:25:04.598Z,100638.02
2017-08-28T12:27:32.062Z,100641.34
2017-08-28T12:29:59.525Z,100640.45
2017-08-28T12:32:27.006Z,100631.19
2017-08-28T12:34:54.449Z,100640.81
2017-08-28T12:37:21.919Z,100636.03
2017-08-28T12:39:49.358Z,100632.07
2017-08-28T12:42:16.818Z,100638.55
2017-08-28T12:44:44.262Z,100640.20
2017-08-28T12:47:11.797Z,100640.61
2017-08-28T12:49:39.246Z,100641.13
2017-08-28T12:52:06.707Z,100636.73
2017-08-28T12:54:34.159Z,100636.24
2017-08-28T12:57:01.651Z,100630.88
2017-08-28T12:59:29.094Z,100634.75
2017-08-28T13:01:56.550Z,100625.83
2017-08-28T13:04:24.018Z,100624.92
2017-08-28T13:06:51.462Z,100625.05
2017-08-28T13:09:18.932Z,100617.01
2017-08-28T13:11:46.379Z,100618.56
2017-08-28T13:14:13.885Z,100620.73
2017-08-28T13:16:41.344Z,100620.16
2017-08-28T13:19:08.810Z,100612.61
2017-08-28T13:21:36.254Z,100612.10
2017-08-28T13:24:03.714Z,100604.05
2017-08-28T13:26:31.162Z,100601.38
2017-08-28T13:28:58.622Z,100596.69
2017-08-28T13:31:26.070Z,100598.22
2017-08-28T13:33:53.542Z,100592.11
2017-08-28T13:36:20.982Z,100594.92
2017-08-28T13:38:48.442Z,100588.48
2017-08-28T13:41:15.882Z,100593.28
2017-08-28T13:43:43.342Z,100595.59
2017-08-28T13:46:10.791Z,100593.92
2017-08-28T13:48:38.262Z,100588.55
2017-08-28T13:51:05.730Z,100592.84
2017-08-28T13:53:33.174Z,100589.47
2017-08-28T13:56:00.644Z,100587.60
2017-08-28T13:58:28.086Z,100587.20
2017-08-28T14:00:55.555Z,100588.55
2017-08-28T14:03:23.003Z,100587.39
2017-08-28T14:05:50.479Z,100573.50
2017-08-28T14:08:17.928Z,100575.93
2017-08-28T14:10:45.395Z,100577.52
2017-08-28T14:13:12.869Z,100575.42
2017-08-28T14:15:40.346Z,100567.61
2017-08-28T14:18:07.810Z,100572.23
2017-08-28T14:20:35.273Z,100572.42
2017-08-28T14:23:02.732Z,100565.69
2017-08-28T14:25:30.202Z,100569.50
2017-08-28T14:27:57.642Z,100561.05
2017-08-28T14:30:25.110Z,100556.57
2017-08-28T14:32:52.562Z,100555.48
2017-08-28T14:35:20.058Z,100552.20
2017-08-28T14:37:47.527Z,100547.59
2017-08-28T14:40:14.975Z,100549.08
2017-08-28T14:42:42.451Z,100545.87
2017-08-28T14:45:09.893Z,100542.44
2017-08-28T14:47:37.358Z,100542.52
2017-08-28T14:50:04.802Z,100535.14
2017-08-28T14:52:32.270Z,100535.56
2017-08-28T14:54:59.723Z,100539.23
2017-08-28T14:57:27.186Z,100533.16
2017-08-28T14:59:54.628Z,100535.00
2017-08-28T15:02:22.103Z,100530.69
2017-08-28T15:04:49.541Z,100529.73
2017-08-28T15:07:16.982Z,100527.36
2017-08-28T15:09:44.451Z,100527.40
2017-08-28T15:12:11.910Z,100524.55
2017-08-28T15:14:39.383Z,100517.71
2017-08-28T15:17:06.839Z,100517.63
2017-08-28T15:19:34.301Z,100519.86
2017-08-28T15:22:01.745Z,100522.34
2017-08-28T15:24:29.211Z,100514.98
2017-08-28T15:26:56.650Z,100515.47
2017-08-28T15:29:24.118Z,100504.38
2017-08-28T15:31:51.643Z,100508.53
2017-08-28T15:34:19.108Z,100508.09
2017-08-28T15:36:46.559Z,100503.63
2017-08-28T15:39:14.026Z,100497.95
2017-08-28T15:41:41.462Z,100508.18
2017-08-28T15:44:08.938Z,100502.82
2017-08-28T15:46:36.385Z,100502.31
2017-08-28T15:49:03.850Z,100498.48
2017-08-28T15:51:31.298Z,100499.75
2017-08-28T15:53:58.826Z,100500.30
2017-08-28T15:56:26.272Z,100501.80
2017-08-28T15:58:53.724Z,100492.73
2017-08-28T16:01:21.204Z,100494.52
2017-08-28T16:03:48.646Z,100492.12
2017-08-28T16:06:16.120Z,100488.22
2017-08-28T16:08:43.563Z,100485.50
2017-08-28T16:11:11.025Z,100482.48
2017-08-28T16:13:38.465Z,100486.88
2017-08-28T16:16:05.944Z,100489.77
2017-08-28T16:18:33.398Z,100495.31
2017-08-28T16:21:00.867Z,100485.47
2017-08-28T16:23:28.311Z,100487.68
2017-08-28T16:25:55.779Z,100491.26
2017-08-28T16:28:23.223Z,100488.13
2017-08-28T16:30:50.754Z,100489.03
2017-08-28T16:33:18.223Z,100491.06
2017-08-28T16:35:45.694Z,100490.91
2017-08-28T16:38:13.134Z,100487.36
2017-08-28T16:40:40.598Z,100488.02
2017-08-28T16:43:08.046Z,100491.23
2017-08-28T16:45:35.858Z,100487.97
2017-08-28T16:48:03.303Z,100485.13
2017-08-28T16:50:30.781Z,100479.70
2017-08-28T16:52:58.252Z,100478.92
2017-08-28T16:55:25.727Z,100482.22
2017-08-28T16:57:53.196Z,100479.75
2017-08-28T17:00:20.686Z,100480.61
2017-08-28T17:02:48.134Z,100481.69
2017-08-28T17:05:15.586Z,100487.87
2017-08-28T17:07:43.059Z,100488.13
2017-08-28T17:10:10.538Z,100486.77
2017-08-28T17:12:38.003Z,100493.41
2017-08-28T17:15:05.487Z,100488.92
2017-08-28T17:17:32.974Z,100495.97
2017-08-28T17:20:00.422Z,100490.97
2017-08-28T17:22:27.886Z,100491.70
2017-08-28T17:24:55.339Z,100489.41
2017-08-28T17:27:22.798Z,100491.19
2017-08-28T17:29:50.260Z,100485.48
2017-08-28T17:32:17.734Z,100491.45
2017-08-28T17:34:45.191Z,100495.47
2017-08-28T17:37:12.670Z,100496.22
2017-08-28T17:39:40.114Z,100488.84
2017-08-28T17:42:07.587Z,100494.19
2017-08-28T17:44:35.034Z,100490.82
2017-08-28T17:47:02.530Z,100500.52
2017-08-28T17:49:29.997Z,100498.69
2017-08-28T17:51:57.470Z,100496.61
2017-08-28T17:54:24.914Z,100497.80
2017-08-28T17:56:52.460Z,100496.86
2017-08-28T17:59:19.906Z,100497.38
2017-08-28T18:01:47.373Z,100496.85
2017-08-28T18:04:14.818Z,100497.89
2017-08-28T18:06:42.377Z,100497.06
2017-08-28T18:09:09.839Z,100503.75
2017-08-28T18:11:37.301Z,100505.86
2017-08-28T18:14:04.755Z,100502.69
2017-08-28T18:16:32.235Z,100494.63
2017-08-28T18:18:59.707Z,100501.45
2017-08-28T18:21:27.347Z,100508.09
2017-08-28T18:23:54.806Z,100506.73
2017-08-28T18:26:22.277Z,100507.03
2017-08-28T18:28:49.726Z,100505.77
2017-08-28T18:31:17.195Z,100508.05
2017-08-28T18:33:45.371Z,100504.99
2017-08-28T18:36:12.871Z,100512.64
2017-08-28T18:38:40.368Z,100509.16
2017-08-28T18:41:07.819Z,100515.97
2017-08-28T18:43:35.346Z,100517.33
2017-08-28T18:46:02.811Z,100516.80
2017-08-28T18:48:30.285Z,100522.88
2017-08-28T18:50:57.730Z,100526.93
2017-08-28T18:53:25.194Z,100528.47
2017-08-28T18:55:52.643Z,100525.75
2017-08-28T18:58:20.230Z,100528.72
2017-08-28T19:00:47.690Z,100530.53
2017-08-28T19:03:15.195Z,100527.66
2017-08-28T19:05:42.766Z,100539.22
2017-08-28T19:08:10.261Z,100536.94
2017-08-28T19:10:37.793Z,100534.80
2017-08-28T19:13:06.786Z,100541.44
2017-08-28T19:15:34.302Z,100538.95
2017-08-28T19:18:01.784Z,100545.42
2017-08-28T19:20:29.240Z,100547.75
2017-08-28T19:22:56.755Z,100549.69
2017-08-28T19:25:24.214Z,100546.58
2017-08-28T19:27:51.675Z,100551.91
2017-08-28T19:30:19.124Z,100550.15
2017-08-28T19:32:46.591Z,100556.22
2017-08-28T19:35:14.056Z,100550.78
2017-08-28T19:37:41.534Z,100551.11
2017-08-28T19:40:09.059Z,100549.22
2017-08-28T19:42:36.538Z,100549.39
2017-08-28T19:45:04.043Z,100549.42
2017-08-28T19:47:31.515Z,100547.79
2017-08-28T19:49:58.978Z,100550.08
2017-08-28T19:52:26.468Z,100553.01
2017-08-28T19:54:53.925Z,100553.33
2017-08-28T19:57:21.376Z,100556.75
2017-08-28T19:59:48.908Z,100561.02
2017-08-28T20:05:14.371Z,100560.09
2017-08-28T20:07:41.835Z,100567.18
2017-08-28T20:10:09.351Z,100566.38
2017-08-28T20:12:36.819Z,100570.27
2017-08-28T20:15:04.323Z,100575.05
2017-08-28T20:17:31.778Z,100577.53
2017-08-28T20:19:59.367Z,100573.10
2017-08-28T20:22:26.831Z,100579.59
2017-08-28T20:24:54.297Z,100578.61
2017-08-28T20:27:21.779Z,100577.08
2017-08-28T20:29:49.249Z,100577.78
2017-08-28T20:32:16.754Z,100576.02
2017-08-28T20:34:44.228Z,100577.14
2017-08-28T20:37:11.743Z,100569.11
2017-08-28T20:39:39.424Z,100567.11
2017-08-28T20:42:06.934Z,100568.73
2017-08-28T20:44:34.410Z,100572.63
2017-08-28T20:47:01.890Z,100574.63
2017-08-28T20:49:29.350Z,100565.87
2017-08-28T20:51:56.917Z,100563.34
2017-08-28T20:54:24.399Z,100565.48
2017-08-28T20:56:51.858Z,100568.26
2017-08-28T20:59:19.339Z,100568.55
2017-08-28T21:01:46.786Z,100562.58
2017-08-28T21:04:14.263Z,100558.58
2017-08-28T21:06:41.711Z,100558.25
2017-08-28T21:09:09.423Z,100563.38
2017-08-28T21:11:37.150Z,100563.65
2017-08-28T21:14:04.633Z,100568.77
2017-08-28T21:16:32.090Z,100562.48
2017-08-28T21:18:59.559Z,100569.70
2017-08-28T21:21:27.014Z,100570.14
2017-08-28T21:23:54.502Z,100574.28
2017-08-28T21:26:21.951Z,100575.73
2017-08-28T21:28:49.428Z,100573.43
2017-08-28T21:31:16.936Z,100577.35
2017-08-28T21:33:44.415Z,100578.12
2017-08-28T21:36:11.885Z,100580.32
2017-08-28T21:38:39.367Z,100578.73
2017-08-28T21:41:06.817Z,100575.87
2017-08-28T21:43:34.274Z,100578.94
2017-08-28T21:46:01.758Z,100575.36
2017-08-28T21:48:29.216Z,100575.87
2017-08-28T21:50:56.694Z,100571.11
2017-08-28T21:53:24.152Z,100576.83
2017-08-28T21:55:51.629Z,100579.87
2017-08-28T21:58:19.073Z,100573.92
2017-08-28T22:00:46.543Z,100566.64
2017-08-28T22:03:14.014Z,100579.05
2017-08-28T22:05:41.495Z,100578.28
2017-08-28T22:08:08.946Z,100586.75
2017-08-28T22:10:36.426Z,100578.71
2017-08-28T22:13:03.870Z,100583.25
2017-08-28T22:15:31.351Z,100585.21
2017-08-28T22:17:58.816Z,100585.67
2017-08-28T22:20:26.289Z,100580.41
2017-08-28T22:22:53.738Z,100578.50
2017-08-28T22:25:21.215Z,100582.73
2017-08-28T22:27:48.666Z,100573.74
2017-08-28T22:30:16.146Z,100576.39
2017-08-28T22:32:43.604Z,100574.27
2017-08-28T22:35:11.087Z,100579.56
2017-08-28T22:37:38.534Z,100574.02
2017-08-28T22:40:06.010Z,100580.22
2017-08-28T22:42:33.466Z,100581.87
2017-08-28T22:45:00.947Z,100581.92
2017-08-28T22:47:28.402Z,100582.59
2017-08-28T22:49:55.883Z,100583.60
2017-08-28T22:52:23.358Z,100582.09
2017-08-28T22:54:50.810Z,100585.75
2017-08-28T22:57:18.316Z,100581.81
2017-08-28T22:59:45.762Z,100573.59
2017-08-28T23:02:13.234Z,100575.93
2017-08-28T23:04:40.683Z,100577.73
2017-08-28T23:07:08.163Z,100574.24
2017-08-28T23:09:35.616Z,100573.52
2017-08-28T23:12:03.085Z,100578.09
2017-08-28T23:14:30.529Z,100572.08
2017-08-28T23:16:58.155Z,100573.95
2017-08-28T23:19:25.615Z,100573.09
2017-08-28T23:21:53.089Z,100579.24
2017-08-28T23:24:20.544Z,100574.52
2017-08-28T23:26:48.010Z,100572.95
2017-08-28T23:29:15.457Z,100577.29
2017-08-28T23:31:42.928Z,100571.63
2017-08-28T23:34:10.390Z,100575.00
2017-08-28T23:36:37.854Z,100566.52
2017-08-28T23:39:05.306Z,100566.63
2017-08-28T23:41:32.779Z,100562.17
2017-08-28T23:44:00.239Z,100554.27
2017-08-28T23:46:27.707Z,100554.05
2017-08-28T23:48:55.156Z,100555.23
2017-08-28T23:51:22.641Z,100557.41
2017-08-28T23:53:50.139Z,100556.06
2017-08-28T23:56:17.611Z,100555.41
2017-08-28T23:58:45.068Z,100552.84
